Time;durP1;ratioP1;P1;durP2;ratioP2;P2;SDS_P1;SDS_P2;PMS_P1;PMS_P2;Temp;Humidity;BMP_temperature;BMP_pressure;BME280_temperature;BME280_humidity;BME280_pressure;Samples;Min_cycle;Max_cycle;Signal;HPM_P1;HPM_P2
2021/05/19 00:00:46;;;;;;;10.99;5.64;;;;;;;;;;346550;152;865652;-60
2021/05/19 00:01:48;;;;;;;6.57;5.18;;;;;;;;;;347656;152;857281;-60
2021/05/19 00:02:49;;;;;;;8.27;5.40;;;;;;;;;;347771;152;857362;-59
2021/05/19 00:03:51;;;;;;;10.23;5.05;;;;;;;;;;350438;152;865843;-60
2021/05/19 00:04:53;;;;;;;5.33;4.78;;;;;;;;;;353694;152;860774;-60
2021/05/19 00:05:54;;;;;;;8.10;4.91;;;;;;;;;;347854;152;859390;-60
2021/05/19 00:06:56;;;;;;;7.60;4.93;;;;;;;;;;348203;153;867405;-60
2021/05/19 00:07:57;;;;;;;6.79;5.10;;;;;;;;;;348920;152;864896;-60
2021/05/19 00:08:59;;;;;;;6.23;5.02;;;;;;;;;;347575;152;857331;-59
2021/05/19 00:10:01;;;;;;;6.89;5.70;;;;;;;;;;348124;154;857363;-60
2021/05/19 00:11:02;;;;;;;10.74;5.29;;;;;;;;;;349460;149;857316;-59
2021/05/19 00:12:04;;;;;;;6.28;5.55;;;;;;;;;;347969;152;857351;-60
2021/05/19 00:13:06;;;;;;;5.81;5.07;;;;;;;;;;349463;152;864909;-59
2021/05/19 00:14:08;;;;;;;6.36;5.29;;;;;;;;;;347169;154;859189;-60
2021/05/19 00:15:09;;;;;;;5.80;5.19;;;;;;;;;;348234;152;865155;-60
2021/05/19 00:16:11;;;;;;;6.64;4.85;;;;;;;;;;347463;152;857792;-60
2021/05/19 00:17:13;;;;;;;10.94;5.78;;;;;;;;;;347124;152;857866;-60
2021/05/19 00:18:14;;;;;;;8.44;4.84;;;;;;;;;;348273;152;859207;-58
2021/05/19 00:19:16;;;;;;;6.70;5.27;;;;;;;;;;350775;152;865976;-60
2021/05/19 00:20:21;;;;;;;6.91;5.14;;;;;;;;;;347667;152;858098;-59
2021/05/19 00:21:22;;;;;;;11.22;5.06;;;;;;;;;;348562;152;865033;-59
2021/05/19 00:22:24;;;;;;;7.68;6.02;;;;;;;;;;347486;152;859301;-59
2021/05/19 00:23:26;;;;;;;6.52;5.49;;;;;;;;;;349162;152;866541;-59
2021/05/19 00:24:27;;;;;;;8.60;5.96;;;;;;;;;;347802;149;859317;-59
2021/05/19 00:25:29;;;;;;;6.54;5.04;;;;;;;;;;347892;152;858162;-59
2021/05/19 00:26:31;;;;;;;5.87;5.01;;;;;;;;;;351381;152;865478;-60
2021/05/19 00:27:32;;;;;;;7.46;5.16;;;;;;;;;;350201;152;865396;-59
2021/05/19 00:28:34;;;;;;;6.26;4.96;;;;;;;;;;348070;152;866133;-59
2021/05/19 00:29:36;;;;;;;8.31;5.69;;;;;;;;;;350512;152;859072;-59
2021/05/19 00:30:40;;;;;;;6.73;5.09;;;;;;;;;;347762;152;858801;-59
2021/05/19 00:31:41;;;;;;;7.50;4.98;;;;;;;;;;349175;152;865836;-59
2021/05/19 00:32:43;;;;;;;8.19;5.13;;;;;;;;;;349346;150;858199;-59
2021/05/19 00:33:45;;;;;;;6.79;4.82;;;;;;;;;;348376;152;857406;-60
2021/05/19 00:34:48;;;;;;;12.41;4.96;;;;;;;;;;349334;152;859131;-59
2021/05/19 00:35:50;;;;;;;7.08;5.36;;;;;;;;;;342837;155;858247;-60
2021/05/19 00:36:52;;;;;;;6.79;4.66;;;;;;;;;;343583;156;865652;-60
2021/05/19 00:37:54;;;;;;;6.76;4.19;;;;;;;;;;353510;152;859509;-60
2021/05/19 00:38:57;;;;;;;7.47;4.69;;;;;;;;;;347717;152;864905;-59
2021/05/19 00:39:59;;;;;;;7.27;4.92;;;;;;;;;;348975;152;857278;-60
2021/05/19 00:41:00;;;;;;;6.68;4.35;;;;;;;;;;347757;152;859203;-59
2021/05/19 00:42:02;;;;;;;6.56;4.35;;;;;;;;;;348727;153;864814;-59
2021/05/19 00:43:04;;;;;;;5.98;4.44;;;;;;;;;;349006;152;858389;-60
2021/05/19 00:44:06;;;;;;;6.64;4.75;;;;;;;;;;348538;152;864994;-60
2021/05/19 00:45:08;;;;;;;7.40;4.75;;;;;;;;;;348277;152;857358;-60
2021/05/19 00:46:12;;;;;;;5.39;4.79;;;;;;;;;;348305;152;858957;-59
2021/05/19 00:47:15;;;;;;;5.13;4.62;;;;;;;;;;347180;154;857373;-60
2021/05/19 00:48:17;;;;;;;9.90;4.86;;;;;;;;;;349681;152;859451;-59
2021/05/19 00:49:18;;;;;;;5.46;4.53;;;;;;;;;;347795;152;857390;-60
2021/05/19 00:50:21;;;;;;;8.62;5.35;;;;;;;;;;347859;152;857708;-60
2021/05/19 00:51:23;;;;;;;10.93;5.27;;;;;;;;;;347435;152;859363;-59
2021/05/19 00:52:25;;;;;;;6.96;4.74;;;;;;;;;;348503;152;859699;-60
2021/05/19 00:53:26;;;;;;;6.30;4.71;;;;;;;;;;347969;152;865220;-60
2021/05/19 00:54:28;;;;;;;8.53;5.09;;;;;;;;;;349534;150;865015;-59
2021/05/19 00:55:29;;;;;;;5.82;4.93;;;;;;;;;;347961;152;864822;-60
2021/05/19 00:56:33;;;;;;;7.18;4.46;;;;;;;;;;348198;152;857271;-60
2021/05/19 00:57:34;;;;;;;8.56;4.62;;;;;;;;;;347410;152;857385;-60
2021/05/19 00:58:36;;;;;;;9.51;4.98;;;;;;;;;;352361;152;864928;-59
2021/05/19 00:59:38;;;;;;;6.79;4.91;;;;;;;;;;350165;149;865931;-60
2021/05/19 01:00:40;;;;;;;6.63;4.99;;;;;;;;;;348078;152;858816;-60
2021/05/19 01:01:42;;;;;;;6.54;5.26;;;;;;;;;;353057;152;859039;-60
2021/05/19 01:02:44;;;;;;;7.94;5.51;;;;;;;;;;350035;152;864977;-59
2021/05/19 01:03:45;;;;;;;7.28;5.11;;;;;;;;;;348207;154;859137;-59
2021/05/19 01:04:47;;;;;;;6.52;5.39;;;;;;;;;;351716;150;857424;-59
2021/05/19 01:05:53;;;;;;;8.18;6.07;;;;;;;;;;347515;152;860251;-59
2021/05/19 01:06:59;;;;;;;7.39;5.91;;;;;;;;;;347943;152;859144;-59
2021/05/19 01:10:36;;;;;;;;;;;;;;;;;;346290;152;856543;-60
2021/05/19 01:11:38;;;;;;;6.13;5.45;;;;;;;;;;347134;152;857597;-59
2021/05/19 01:12:39;;;;;;;9.03;5.73;;;;;;;;;;345954;152;857519;-59
2021/05/19 01:13:42;;;;;;;8.96;5.29;;;;;;;;;;347702;152;857332;-59
2021/05/19 01:14:43;;;;;;;7.95;5.72;;;;;;;;;;350071;152;857270;-60
2021/05/19 01:15:45;;;;;;;7.06;5.48;;;;;;;;;;349087;152;858927;-61
2021/05/19 01:16:47;;;;;;;6.03;5.46;;;;;;;;;;347027;152;864987;-60
2021/05/19 01:17:48;;;;;;;7.07;5.64;;;;;;;;;;350413;152;857304;-60
2021/05/19 01:18:50;;;;;;;7.14;5.86;;;;;;;;;;348868;152;857185;-60
2021/05/19 01:19:52;;;;;;;8.61;5.56;;;;;;;;;;348640;152;857292;-60
2021/05/19 01:20:57;;;;;;;7.91;5.70;;;;;;;;;;352185;152;857362;-59
2021/05/19 01:22:04;;;;;;;9.14;5.38;;;;;;;;;;345981;152;858032;-59
2021/05/19 01:23:05;;;;;;;7.79;5.86;;;;;;;;;;349617;152;857223;-59
2021/05/19 01:24:07;;;;;;;7.57;5.02;;;;;;;;;;352767;151;857734;-59
2021/05/19 01:25:09;;;;;;;8.94;5.39;;;;;;;;;;347165;152;857477;-59
2021/05/19 01:26:11;;;;;;;6.43;5.19;;;;;;;;;;351035;152;859984;-59
2021/05/19 01:27:13;;;;;;;6.45;5.15;;;;;;;;;;347087;152;866894;-59
2021/05/19 01:28:14;;;;;;;6.01;5.04;;;;;;;;;;347914;152;864978;-61
2021/05/19 01:29:16;;;;;;;6.43;4.87;;;;;;;;;;349977;149;857363;-61
2021/05/19 01:30:19;;;;;;;7.24;5.27;;;;;;;;;;349233;152;857356;-61
2021/05/19 01:31:20;;;;;;;7.69;6.09;;;;;;;;;;353690;150;857448;-61
2021/05/19 01:32:22;;;;;;;6.57;5.67;;;;;;;;;;348690;149;859144;-61
2021/05/19 01:33:23;;;;;;;5.96;5.16;;;;;;;;;;348606;152;857141;-61
2021/05/19 01:34:25;;;;;;;8.24;5.74;;;;;;;;;;353589;152;864827;-61
2021/05/19 01:35:26;;;;;;;8.70;5.76;;;;;;;;;;347049;152;857303;-60
2021/05/19 01:36:30;;;;;;;6.19;5.56;;;;;;;;;;347771;152;857214;-62
2021/05/19 01:37:31;;;;;;;7.24;5.61;;;;;;;;;;346803;153;858909;-61
2021/05/19 01:38:34;;;;;;;7.70;6.04;;;;;;;;;;347109;152;865115;-59
2021/05/19 01:39:35;;;;;;;7.65;6.32;;;;;;;;;;347408;152;857330;-60
2021/05/19 01:40:37;;;;;;;9.27;6.54;;;;;;;;;;347091;152;857468;-59
2021/05/19 01:41:39;;;;;;;8.93;6.11;;;;;;;;;;346870;155;857320;-59
2021/05/19 01:42:41;;;;;;;8.71;6.44;;;;;;;;;;343423;155;859025;-59
2021/05/19 01:43:42;;;;;;;8.35;6.39;;;;;;;;;;346996;152;858241;-59
2021/05/19 01:44:44;;;;;;;10.27;7.07;;;;;;;;;;348181;153;857502;-59
2021/05/19 01:45:46;;;;;;;10.12;7.14;;;;;;;;;;349564;153;860016;-59
2021/05/19 01:46:47;;;;;;;7.73;6.74;;;;;;;;;;339447;155;866845;-59
2021/05/19 01:47:49;;;;;;;9.26;6.89;;;;;;;;;;341330;154;867315;-59
2021/05/19 01:48:52;;;;;;;9.89;6.77;;;;;;;;;;346912;152;857286;-59
2021/05/19 01:49:53;;;;;;;7.38;6.54;;;;;;;;;;347243;155;857203;-60
2021/05/19 01:50:55;;;;;;;8.64;6.39;;;;;;;;;;347329;152;857447;-60
2021/05/19 01:51:58;;;;;;;7.87;6.22;;;;;;;;;;347141;152;865123;-59
2021/05/19 01:53:00;;;;;;;10.18;6.56;;;;;;;;;;350213;152;857475;-59
2021/05/19 01:54:03;;;;;;;8.65;5.53;;;;;;;;;;350123;150;857360;-59
2021/05/19 01:55:06;;;;;;;5.98;4.72;;;;;;;;;;350816;152;857874;-59
2021/05/19 01:56:08;;;;;;;5.46;4.62;;;;;;;;;;350356;152;857772;-59
2021/05/19 01:57:10;;;;;;;8.19;5.38;;;;;;;;;;347012;152;860405;-62
2021/05/19 01:58:11;;;;;;;8.11;4.79;;;;;;;;;;347586;152;857252;-59
2021/05/19 01:59:13;;;;;;;7.68;5.04;;;;;;;;;;347915;150;867426;-59
2021/05/19 02:00:16;;;;;;;8.83;5.14;;;;;;;;;;347274;153;857844;-59
2021/05/19 02:01:18;;;;;;;9.29;4.95;;;;;;;;;;351251;153;859132;-59
2021/05/19 02:02:22;;;;;;;7.89;5.41;;;;;;;;;;344849;153;865759;-59
2021/05/19 02:03:24;;;;;;;8.93;5.95;;;;;;;;;;345737;153;857920;-60
2021/05/19 02:04:25;;;;;;;8.41;6.09;;;;;;;;;;349465;153;857679;-59
2021/05/19 02:05:27;;;;;;;9.79;5.46;;;;;;;;;;345680;153;865873;-59
2021/05/19 02:06:31;;;;;;;9.37;5.23;;;;;;;;;;347515;154;858840;-59
2021/05/19 02:07:35;;;;;;;6.54;5.26;;;;;;;;;;345213;154;857351;-59
2021/05/19 02:08:36;;;;;;;6.58;5.53;;;;;;;;;;345197;154;857391;-58
2021/05/19 02:09:38;;;;;;;9.20;5.31;;;;;;;;;;346618;153;857365;-59
2021/05/19 02:10:42;;;;;;;8.48;5.05;;;;;;;;;;344622;153;864868;-61
2021/05/19 02:11:44;;;;;;;6.95;5.34;;;;;;;;;;344578;154;858372;-59
2021/05/19 02:12:46;;;;;;;8.90;5.16;;;;;;;;;;339087;157;859088;-60
2021/05/19 02:13:47;;;;;;;7.89;4.51;;;;;;;;;;341323;154;865000;-59
2021/05/19 02:14:49;;;;;;;6.27;4.84;;;;;;;;;;349443;152;864817;-59
2021/05/19 02:15:51;;;;;;;6.02;5.16;;;;;;;;;;346980;152;857724;-60
2021/05/19 02:16:52;;;;;;;7.96;5.24;;;;;;;;;;346886;155;857356;-59
2021/05/19 02:17:54;;;;;;;6.42;5.16;;;;;;;;;;347234;155;864880;-59
2021/05/19 02:18:55;;;;;;;9.82;4.59;;;;;;;;;;346962;152;857457;-59
2021/05/19 02:19:59;;;;;;;10.44;4.57;;;;;;;;;;348743;152;857379;-59
2021/05/19 02:21:04;;;;;;;7.14;4.81;;;;;;;;;;348409;152;857418;-62
2021/05/19 02:22:05;;;;;;;9.10;4.41;;;;;;;;;;349563;152;866817;-59
2021/05/19 02:23:07;;;;;;;8.16;4.24;;;;;;;;;;350912;152;866212;-58
2021/05/19 02:24:09;;;;;;;9.37;5.05;;;;;;;;;;348637;152;866212;-59
2021/05/19 02:25:11;;;;;;;8.57;4.38;;;;;;;;;;347245;154;857223;-60
2021/05/19 02:26:14;;;;;;;7.74;4.82;;;;;;;;;;349503;152;857914;-59
2021/05/19 02:27:16;;;;;;;5.81;4.92;;;;;;;;;;346995;152;859253;-58
2021/05/19 02:28:17;;;;;;;10.32;5.11;;;;;;;;;;347132;152;857953;-59
2021/05/19 02:29:19;;;;;;;6.37;4.46;;;;;;;;;;350909;151;857338;-60
2021/05/19 02:30:21;;;;;;;8.26;5.54;;;;;;;;;;347178;152;857440;-60
2021/05/19 02:31:23;;;;;;;9.46;5.85;;;;;;;;;;347071;152;864847;-60
2021/05/19 02:32:25;;;;;;;7.81;5.21;;;;;;;;;;347964;149;858074;-60
2021/05/19 02:33:27;;;;;;;10.09;5.45;;;;;;;;;;348085;152;865315;-60
2021/05/19 02:34:28;;;;;;;8.34;5.68;;;;;;;;;;348836;152;857338;-60
2021/05/19 02:35:30;;;;;;;8.97;5.48;;;;;;;;;;347486;152;857285;-60
2021/05/19 02:36:32;;;;;;;9.39;6.22;;;;;;;;;;347290;152;857357;-60
2021/05/19 02:37:34;;;;;;;9.76;5.84;;;;;;;;;;350665;152;859032;-59
2021/05/19 02:38:35;;;;;;;7.65;6.21;;;;;;;;;;346949;152;866124;-60
2021/05/19 02:39:37;;;;;;;8.87;5.74;;;;;;;;;;351091;152;857544;-60
2021/05/19 02:40:40;;;;;;;6.76;5.99;;;;;;;;;;346784;152;866084;-60
2021/05/19 02:41:42;;;;;;;11.27;6.58;;;;;;;;;;345260;155;859056;-59
2021/05/19 02:42:43;;;;;;;8.19;6.39;;;;;;;;;;350402;152;857838;-59
2021/05/19 02:43:45;;;;;;;8.30;6.15;;;;;;;;;;347736;152;857376;-60
2021/05/19 02:44:47;;;;;;;6.44;5.77;;;;;;;;;;349035;152;865528;-59
2021/05/19 02:45:48;;;;;;;8.86;7.44;;;;;;;;;;351365;152;866657;-59
2021/05/19 02:46:50;;;;;;;7.78;6.73;;;;;;;;;;347094;152;857297;-59
2021/05/19 02:47:52;;;;;;;7.00;6.16;;;;;;;;;;349440;152;865833;-59
2021/05/19 02:49:01;;;;;;;8.21;6.56;;;;;;;;;;347292;152;866367;-59
2021/05/19 02:49:57;;;;;;;9.40;6.64;;;;;;;;;;350402;152;859239;-60
2021/05/19 02:50:58;;;;;;;9.70;6.66;;;;;;;;;;352899;152;857402;-59
2021/05/19 02:52:00;;;;;;;8.14;6.84;;;;;;;;;;347957;149;866322;-59
2021/05/19 02:53:02;;;;;;;8.37;7.04;;;;;;;;;;349559;152;859201;-60
2021/05/19 02:54:04;;;;;;;8.05;7.08;;;;;;;;;;348406;152;858625;-60
2021/05/19 02:55:06;;;;;;;12.39;7.48;;;;;;;;;;348005;152;857316;-60
2021/05/19 02:56:08;;;;;;;8.42;7.25;;;;;;;;;;348659;152;857457;-60
2021/05/19 02:57:09;;;;;;;13.51;9.11;;;;;;;;;;350887;152;857182;-60
2021/05/19 02:58:11;;;;;;;9.84;8.62;;;;;;;;;;348434;152;857651;-60
2021/05/19 02:59:13;;;;;;;13.89;9.24;;;;;;;;;;352606;152;857807;-60
2021/05/19 03:00:15;;;;;;;15.72;10.43;;;;;;;;;;350355;151;865204;-60
2021/05/19 03:01:17;;;;;;;13.47;9.23;;;;;;;;;;348723;152;858141;-60
2021/05/19 03:02:18;;;;;;;11.71;9.39;;;;;;;;;;350157;152;858313;-60
2021/05/19 03:03:20;;;;;;;16.83;11.24;;;;;;;;;;347437;151;864186;-60
2021/05/19 03:04:21;;;;;;;12.29;9.78;;;;;;;;;;347074;152;866089;-60
2021/05/19 03:05:23;;;;;;;13.52;9.86;;;;;;;;;;351721;152;858742;-59
2021/05/19 03:06:25;;;;;;;23.03;10.17;;;;;;;;;;349015;149;860097;-60
2021/05/19 03:07:27;;;;;;;15.16;9.77;;;;;;;;;;347248;155;859232;-60
2021/05/19 03:08:28;;;;;;;11.09;9.47;;;;;;;;;;352200;152;857501;-61
2021/05/19 03:09:30;;;;;;;14.97;10.04;;;;;;;;;;346872;152;865004;-60
2021/05/19 03:10:34;;;;;;;14.34;9.33;;;;;;;;;;348760;152;857346;-60
2021/05/19 03:11:36;;;;;;;13.25;9.81;;;;;;;;;;348305;150;857308;-61
2021/05/19 03:12:37;;;;;;;10.46;8.95;;;;;;;;;;350181;152;860444;-60
2021/05/19 03:13:39;;;;;;;10.41;9.01;;;;;;;;;;351923;152;857901;-60
2021/05/19 03:14:41;;;;;;;12.87;9.73;;;;;;;;;;349293;152;857508;-61
2021/05/19 03:15:42;;;;;;;14.71;9.75;;;;;;;;;;347134;154;866903;-60
2021/05/19 03:16:44;;;;;;;13.02;8.99;;;;;;;;;;347768;152;857255;-60
2021/05/19 03:17:46;;;;;;;14.28;9.65;;;;;;;;;;349130;152;866720;-61
2021/05/19 03:18:48;;;;;;;11.34;9.02;;;;;;;;;;350168;152;865198;-61
2021/05/19 03:19:49;;;;;;;12.25;9.86;;;;;;;;;;348526;152;858806;-60
2021/05/19 03:20:51;;;;;;;14.96;9.49;;;;;;;;;;346911;152;859706;-60
2021/05/19 03:21:53;;;;;;;11.72;9.28;;;;;;;;;;351823;152;865845;-60
2021/05/19 03:22:55;;;;;;;10.90;9.46;;;;;;;;;;349134;149;857290;-59
2021/05/19 03:23:56;;;;;;;13.79;9.27;;;;;;;;;;349383;152;857844;-60
2021/05/19 03:24:58;;;;;;;11.12;9.06;;;;;;;;;;350593;152;857394;-60
2021/05/19 03:26:00;;;;;;;11.88;9.40;;;;;;;;;;349394;152;857408;-61
2021/05/19 03:27:02;;;;;;;9.69;6.33;;;;;;;;;;349967;152;857804;-61
2021/05/19 03:28:03;;;;;;;7.16;5.66;;;;;;;;;;353674;152;857378;-61
2021/05/19 03:29:05;;;;;;;8.66;5.24;;;;;;;;;;347024;152;866299;-61
2021/05/19 03:30:08;;;;;;;7.38;6.17;;;;;;;;;;348241;152;859695;-62
2021/05/19 03:31:11;;;;;;;10.08;6.61;;;;;;;;;;348577;152;858077;-63
2021/05/19 03:32:14;;;;;;;11.61;5.51;;;;;;;;;;346983;152;858771;-61
2021/05/19 03:33:16;;;;;;;11.25;6.11;;;;;;;;;;352091;152;857937;-61
2021/05/19 03:34:18;;;;;;;7.37;5.81;;;;;;;;;;352076;152;859338;-61
2021/05/19 03:35:19;;;;;;;14.71;7.11;;;;;;;;;;347341;152;866770;-61
2021/05/19 03:36:21;;;;;;;6.83;5.85;;;;;;;;;;349276;152;857376;-60
2021/05/19 03:37:23;;;;;;;7.94;6.01;;;;;;;;;;350539;152;857491;-60
2021/05/19 03:38:24;;;;;;;8.26;5.31;;;;;;;;;;347207;152;858944;-59
2021/05/19 03:39:26;;;;;;;8.21;6.11;;;;;;;;;;347959;152;858981;-61
2021/05/19 03:40:28;;;;;;;14.14;7.62;;;;;;;;;;348500;152;860692;-61
2021/05/19 03:41:30;;;;;;;9.42;7.34;;;;;;;;;;346881;154;858200;-62
2021/05/19 03:42:32;;;;;;;11.50;6.41;;;;;;;;;;348080;152;859414;-61
2021/05/19 03:43:33;;;;;;;9.36;7.85;;;;;;;;;;347938;152;860354;-61
2021/05/19 03:44:35;;;;;;;11.25;8.54;;;;;;;;;;347896;152;865050;-61
2021/05/19 03:45:36;;;;;;;13.59;9.13;;;;;;;;;;352279;152;857220;-60
2021/05/19 03:46:39;;;;;;;14.59;8.20;;;;;;;;;;349552;152;857519;-60
2021/05/19 03:47:40;;;;;;;11.24;9.37;;;;;;;;;;353212;152;857426;-59
2021/05/19 03:48:42;;;;;;;11.79;8.08;;;;;;;;;;349377;152;857472;-60
2021/05/19 03:49:44;;;;;;;12.85;9.28;;;;;;;;;;352080;152;865120;-60
2021/05/19 03:50:47;;;;;;;11.36;9.23;;;;;;;;;;347669;152;857332;-60
2021/05/19 03:51:49;;;;;;;14.84;9.55;;;;;;;;;;347681;152;858383;-61
2021/05/19 03:52:51;;;;;;;11.20;9.16;;;;;;;;;;351009;152;866621;-59
2021/05/19 03:53:53;;;;;;;11.01;9.29;;;;;;;;;;347467;152;858068;-60
2021/05/19 03:54:54;;;;;;;18.33;10.47;;;;;;;;;;348686;149;858009;-60
2021/05/19 03:55:56;;;;;;;10.29;9.16;;;;;;;;;;349479;152;857374;-60
2021/05/19 03:56:58;;;;;;;14.36;9.48;;;;;;;;;;352664;150;857780;-61
2021/05/19 03:57:59;;;;;;;11.49;9.58;;;;;;;;;;347958;152;864989;-60
2021/05/19 03:59:01;;;;;;;11.13;9.12;;;;;;;;;;349841;152;857456;-62
2021/05/19 04:00:05;;;;;;;13.14;9.52;;;;;;;;;;351005;152;867316;-60
2021/05/19 04:01:06;;;;;;;13.87;10.05;;;;;;;;;;347026;152;865173;-60
2021/05/19 04:02:08;;;;;;;15.16;9.56;;;;;;;;;;348829;153;858861;-59
2021/05/19 04:03:09;;;;;;;12.23;9.32;;;;;;;;;;348961;152;859172;-59
2021/05/19 04:04:11;;;;;;;12.55;10.09;;;;;;;;;;347159;152;857188;-59
2021/05/19 04:05:13;;;;;;;12.54;9.32;;;;;;;;;;349184;153;857514;-60
2021/05/19 04:06:21;;;;;;;11.48;9.76;;;;;;;;;;345743;153;865135;-61
2021/05/19 04:07:21;;;;;;;12.39;9.63;;;;;;;;;;346450;155;857932;-60
2021/05/19 04:08:24;;;;;;;11.11;9.94;;;;;;;;;;345045;155;865989;-60
2021/05/19 04:09:26;;;;;;;13.76;9.89;;;;;;;;;;340318;155;857443;-59
2021/05/19 04:10:28;;;;;;;13.19;9.85;;;;;;;;;;344652;153;859997;-61
2021/05/19 04:11:30;;;;;;;11.39;9.59;;;;;;;;;;345110;153;857403;-59
2021/05/19 04:12:31;;;;;;;14.12;9.24;;;;;;;;;;344510;153;857303;-58
2021/05/19 04:13:33;;;;;;;13.88;9.89;;;;;;;;;;349964;153;857242;-57
2021/05/19 04:14:34;;;;;;;11.97;8.97;;;;;;;;;;346483;153;857852;-57
2021/05/19 04:15:36;;;;;;;13.59;9.76;;;;;;;;;;345809;153;859101;-59
2021/05/19 04:16:39;;;;;;;13.65;9.89;;;;;;;;;;350433;153;859442;-58
2021/05/19 04:17:40;;;;;;;11.60;10.08;;;;;;;;;;345142;153;858890;-58
2021/05/19 04:18:42;;;;;;;14.11;10.75;;;;;;;;;;346696;155;860697;-59
2021/05/19 04:19:44;;;;;;;19.14;11.56;;;;;;;;;;343396;155;865210;-58
2021/05/19 04:20:46;;;;;;;14.03;10.69;;;;;;;;;;340200;155;866912;-63
2021/05/19 04:21:47;;;;;;;12.79;10.51;;;;;;;;;;342487;155;859340;-58
2021/05/19 04:22:49;;;;;;;12.23;10.67;;;;;;;;;;342552;156;857289;-59
2021/05/19 04:23:50;;;;;;;12.51;11.01;;;;;;;;;;338894;156;865026;-59
2021/05/19 04:24:52;;;;;;;14.64;10.79;;;;;;;;;;338856;156;857216;-57
2021/05/19 04:25:54;;;;;;;14.34;10.69;;;;;;;;;;336840;156;857380;-62
2021/05/19 04:26:56;;;;;;;13.23;11.33;;;;;;;;;;336567;158;856308;-60
2021/05/19 04:27:57;;;;;;;14.35;10.79;;;;;;;;;;337097;156;856842;-60
2021/05/19 04:28:59;;;;;;;14.29;10.66;;;;;;;;;;336947;154;856436;-60
2021/05/19 04:30:00;;;;;;;14.06;10.64;;;;;;;;;;336647;158;856383;-60
2021/05/19 04:31:02;;;;;;;14.07;11.16;;;;;;;;;;337195;156;856545;-59
2021/05/19 04:32:04;;;;;;;15.56;10.24;;;;;;;;;;336253;156;863977;-60
2021/05/19 04:33:05;;;;;;;13.38;10.82;;;;;;;;;;337138;156;864068;-61
2021/05/19 04:34:07;;;;;;;13.86;10.04;;;;;;;;;;337799;154;856218;-61
2021/05/19 04:35:09;;;;;;;12.49;10.49;;;;;;;;;;337989;156;856355;-58
2021/05/19 04:36:11;;;;;;;13.37;10.25;;;;;;;;;;337759;156;856387;-60
2021/05/19 04:37:12;;;;;;;14.51;11.09;;;;;;;;;;337738;154;856528;-58
2021/05/19 04:38:14;;;;;;;15.51;11.79;;;;;;;;;;337673;158;864282;-59
2021/05/19 04:39:15;;;;;;;15.02;10.92;;;;;;;;;;338789;156;856861;-62
2021/05/19 04:40:18;;;;;;;13.50;10.59;;;;;;;;;;338312;156;857353;-61
2021/05/19 04:41:20;;;;;;;13.64;10.75;;;;;;;;;;337839;156;857060;-63
2021/05/19 04:42:22;;;;;;;13.19;10.94;;;;;;;;;;339509;156;864059;-62
2021/05/19 04:43:24;;;;;;;14.06;10.90;;;;;;;;;;338153;156;863974;-59
2021/05/19 04:44:25;;;;;;;16.19;10.79;;;;;;;;;;338182;156;864316;-61
2021/05/19 04:45:27;;;;;;;14.02;10.36;;;;;;;;;;346959;150;856269;-62
2021/05/19 04:46:29;;;;;;;12.82;10.22;;;;;;;;;;348286;151;856261;-63
2021/05/19 04:47:31;;;;;;;13.38;11.16;;;;;;;;;;347113;152;856361;-62
2021/05/19 04:48:32;;;;;;;14.19;10.28;;;;;;;;;;347430;149;856452;-62
2021/05/19 04:49:34;;;;;;;14.76;10.73;;;;;;;;;;346918;152;856294;-62
2021/05/19 04:50:36;;;;;;;11.94;10.51;;;;;;;;;;348548;152;856405;-60
2021/05/19 04:51:37;;;;;;;14.86;10.82;;;;;;;;;;346869;152;857211;-61
2021/05/19 04:52:39;;;;;;;15.86;10.30;;;;;;;;;;347303;153;866390;-60
2021/05/19 04:53:41;;;;;;;12.91;10.08;;;;;;;;;;348801;152;856597;-61
2021/05/19 04:54:42;;;;;;;11.98;9.83;;;;;;;;;;348009;152;856484;-61
2021/05/19 04:55:44;;;;;;;15.06;10.09;;;;;;;;;;347870;152;864344;-61
2021/05/19 04:56:46;;;;;;;10.92;9.79;;;;;;;;;;348374;152;857094;-60
2021/05/19 04:57:48;;;;;;;14.01;9.87;;;;;;;;;;348287;152;864521;-61
2021/05/19 04:58:50;;;;;;;12.56;9.12;;;;;;;;;;349518;152;856246;-61
2021/05/19 04:59:51;;;;;;;14.34;10.10;;;;;;;;;;348084;152;856727;-62
2021/05/19 05:00:53;;;;;;;10.45;9.41;;;;;;;;;;348384;152;857050;-60
2021/05/19 05:01:55;;;;;;;11.98;9.56;;;;;;;;;;347812;152;864449;-61
2021/05/19 05:02:56;;;;;;;14.76;9.67;;;;;;;;;;347663;152;865094;-61
2021/05/19 05:03:58;;;;;;;12.17;9.34;;;;;;;;;;348858;152;856886;-61
2021/05/19 05:04:59;;;;;;;15.21;9.46;;;;;;;;;;348479;152;856873;-61
2021/05/19 05:06:01;;;;;;;13.93;9.55;;;;;;;;;;347378;152;856801;-61
2021/05/19 05:07:02;;;;;;;11.41;9.69;;;;;;;;;;349478;152;856679;-61
2021/05/19 05:08:04;;;;;;;12.86;9.08;;;;;;;;;;347353;152;864400;-61
2021/05/19 05:09:06;;;;;;;10.66;8.17;;;;;;;;;;347753;152;856826;-61
2021/05/19 05:10:08;;;;;;;11.69;8.99;;;;;;;;;;348459;151;856365;-61
2021/05/19 05:11:10;;;;;;;16.99;9.30;;;;;;;;;;345341;153;856316;-61
2021/05/19 05:12:11;;;;;;;9.91;7.82;;;;;;;;;;343828;154;856964;-62
2021/05/19 05:13:13;;;;;;;9.31;8.31;;;;;;;;;;341473;154;857377;-61
2021/05/19 05:14:15;;;;;;;10.55;8.27;;;;;;;;;;346131;153;856505;-61
2021/05/19 05:15:18;;;;;;;9.32;7.56;;;;;;;;;;352418;153;864186;-61
2021/05/19 05:16:20;;;;;;;11.41;7.82;;;;;;;;;;345229;153;856426;-61
2021/05/19 05:17:21;;;;;;;13.38;7.74;;;;;;;;;;349213;152;856387;-61
2021/05/19 05:18:23;;;;;;;10.91;7.30;;;;;;;;;;350656;152;863843;-61
2021/05/19 05:19:24;;;;;;;10.44;7.40;;;;;;;;;;345957;152;856299;-61
2021/05/19 05:20:27;;;;;;;9.78;7.96;;;;;;;;;;346532;153;856184;-61
2021/05/19 05:21:29;;;;;;;9.65;7.11;;;;;;;;;;347967;152;856417;-61
2021/05/19 05:22:31;;;;;;;8.43;7.45;;;;;;;;;;344674;155;856170;-62
2021/05/19 05:23:33;;;;;;;8.69;7.68;;;;;;;;;;344320;153;856285;-61
2021/05/19 05:24:34;;;;;;;8.02;6.72;;;;;;;;;;345645;152;856368;-60
2021/05/19 05:25:36;;;;;;;8.54;7.69;;;;;;;;;;351538;152;856317;-61
2021/05/19 05:26:37;;;;;;;8.54;7.37;;;;;;;;;;349074;152;864746;-61
2021/05/19 05:27:39;;;;;;;9.79;7.43;;;;;;;;;;347013;152;864058;-62
2021/05/19 05:28:41;;;;;;;10.08;7.55;;;;;;;;;;348006;153;856936;-62
2021/05/19 05:29:43;;;;;;;9.29;7.40;;;;;;;;;;344903;152;856913;-61
2021/05/19 05:30:46;;;;;;;11.68;7.62;;;;;;;;;;345280;156;856407;-62
2021/05/19 05:31:49;;;;;;;8.77;7.37;;;;;;;;;;345500;154;856227;-62
2021/05/19 05:32:51;;;;;;;8.28;6.79;;;;;;;;;;345783;152;856221;-62
2021/05/19 05:33:52;;;;;;;7.04;6.29;;;;;;;;;;346631;153;856945;-62
2021/05/19 05:34:54;;;;;;;7.48;6.09;;;;;;;;;;346464;152;856436;-62
2021/05/19 05:35:55;;;;;;;7.08;6.13;;;;;;;;;;346205;155;863984;-62
2021/05/19 05:36:57;;;;;;;6.57;5.53;;;;;;;;;;344035;153;856324;-61
2021/05/19 05:37:59;;;;;;;6.79;6.04;;;;;;;;;;344972;152;864350;-61
2021/05/19 05:39:00;;;;;;;7.36;6.09;;;;;;;;;;348960;153;863667;-62
2021/05/19 05:40:03;;;;;;;7.97;5.60;;;;;;;;;;347949;152;856573;-61
2021/05/19 05:41:05;;;;;;;7.61;5.62;;;;;;;;;;347215;152;863839;-61
2021/05/19 05:42:06;;;;;;;9.10;6.01;;;;;;;;;;347975;153;863648;-61
2021/05/19 05:43:08;;;;;;;7.14;6.19;;;;;;;;;;345801;153;856388;-61
2021/05/19 05:44:09;;;;;;;6.61;5.91;;;;;;;;;;346289;154;856367;-61
2021/05/19 05:45:11;;;;;;;8.51;5.61;;;;;;;;;;351267;153;856203;-62
2021/05/19 05:46:13;;;;;;;6.13;5.53;;;;;;;;;;345690;152;856374;-62
2021/05/19 05:47:15;;;;;;;7.46;6.08;;;;;;;;;;346395;155;856326;-62
2021/05/19 05:48:16;;;;;;;7.02;5.56;;;;;;;;;;348680;153;856625;-61
2021/05/19 05:49:18;;;;;;;7.26;6.06;;;;;;;;;;345661;152;856433;-62
2021/05/19 05:50:21;;;;;;;6.78;6.03;;;;;;;;;;344448;153;856474;-62
2021/05/19 05:51:22;;;;;;;6.79;6.04;;;;;;;;;;346308;152;856676;-62
2021/05/19 05:52:24;;;;;;;5.98;5.36;;;;;;;;;;346313;153;856180;-62
2021/05/19 05:53:26;;;;;;;6.57;5.71;;;;;;;;;;346035;153;856295;-62
2021/05/19 05:54:27;;;;;;;9.17;6.24;;;;;;;;;;345691;152;856315;-61
2021/05/19 05:55:29;;;;;;;7.11;6.10;;;;;;;;;;347027;152;856312;-62
2021/05/19 05:56:31;;;;;;;8.64;6.08;;;;;;;;;;345214;154;857074;-62
2021/05/19 05:57:32;;;;;;;7.32;5.88;;;;;;;;;;346430;152;863630;-62
2021/05/19 05:58:34;;;;;;;7.33;5.97;;;;;;;;;;346584;153;856841;-62
2021/05/19 05:59:36;;;;;;;6.99;6.06;;;;;;;;;;344904;152;864527;-62
2021/05/19 06:00:38;;;;;;;13.99;7.25;;;;;;;;;;345500;153;857098;-61
2021/05/19 06:01:39;;;;;;;10.38;6.34;;;;;;;;;;344657;153;856400;-60
2021/05/19 06:02:41;;;;;;;7.09;6.38;;;;;;;;;;345533;152;856421;-61
2021/05/19 06:03:43;;;;;;;6.55;5.69;;;;;;;;;;345434;153;856189;-62
2021/05/19 06:04:44;;;;;;;6.51;5.68;;;;;;;;;;347849;153;856369;-61
2021/05/19 06:05:46;;;;;;;7.66;6.11;;;;;;;;;;348686;153;856380;-62